Time;durP1;ratioP1;P1;durP2;ratioP2;P2;SDS_P1;SDS_P2;PMS_P1;PMS_P2;Temp;Humidity;BMP_temperature;BMP_pressure;BME280_temperature;BME280_humidity;BME280_pressure;Samples;Min_cycle;Max_cycle;Signal;HPM_P1;HPM_P2
2023/10/22 00:03:44;;;;;;;;;;;;;;;19.05;44.16;94795.31;10429773;28;2657;-56
2023/10/22 00:08:44;;;;;;;;;;;;;;;19.05;44.32;94805.81;10430282;28;4658;-58
2023/10/22 00:13:44;;;;;;;;;;;;;;;19.04;44.26;94812.09;10437083;28;2650;-58
2023/10/22 00:18:44;;;;;;;;;;;;;;;19.03;44.22;94810.56;10431871;28;2567;-58
2023/10/22 00:23:45;;;;;;;;;;;;;;;19.05;44.17;94820.78;10433201;28;2709;-58
2023/10/22 00:28:45;;;;;;;;;;;;;;;19.04;44.39;94821.84;10433156;28;2536;-58
2023/10/22 00:33:45;;;;;;;;;;;;;;;19.03;44.04;94831.56;10434611;28;2663;-58
2023/10/22 00:38:46;;;;;;;;;;;;;;;19.04;44.16;94827.13;10434960;28;2595;-58
2023/10/22 00:43:46;;;;;;;;;;;;;;;19.03;44.14;94836.81;10434847;28;2582;-56
2023/10/22 00:48:46;;;;;;;;;;;;;;;19.03;44.27;94836.81;10417505;28;2716;-58
2023/10/22 00:53:47;;;;;;;;;;;;;;;19.04;44.19;94843.63;10428841;28;2594;-58
2023/10/22 00:58:47;;;;;;;;;;;;;;;19.03;44.33;94849.97;10426998;28;2571;-58
2023/10/22 01:03:47;;;;;;;;;;;;;;;19.03;44.25;94857.84;10429439;28;2500;-58
2023/10/22 01:08:47;;;;;;;;;;;;;;;19.03;44.22;94857.06;10425993;28;4396;-58
2023/10/22 01:13:48;;;;;;;;;;;;;;;19.03;44.22;94846.56;10429302;28;2609;-58
2023/10/22 01:18:48;;;;;;;;;;;;;;;19.01;44.19;94844.22;10431409;28;2589;-56
2023/10/22 01:23:48;;;;;;;;;;;;;;;19.02;44.20;94845.75;10433756;28;2544;-58
2023/10/22 01:28:49;;;;;;;;;;;;;;;19.01;44.40;94843.44;10431288;28;2656;-58
2023/10/22 01:33:49;;;;;;;;;;;;;;;19.02;44.24;94858.13;10427608;28;2674;-58
2023/10/22 01:38:49;;;;;;;;;;;;;;;19.01;44.11;94849.47;10424697;28;2648;-58
2023/10/22 01:43:49;;;;;;;;;;;;;;;19.02;44.00;94850.25;10425923;28;2601;-58
2023/10/22 01:48:50;;;;;;;;;;;;;;;19.01;44.20;94854.72;10429764;28;2544;-58
2023/10/22 01:53:50;;;;;;;;;;;;;;;19.01;44.01;94870.47;10424837;28;2618;-57
2023/10/22 01:58:50;;;;;;;;;;;;;;;19.01;44.12;94867.06;10430497;28;2610;-58
2023/10/22 02:03:51;;;;;;;;;;;;;;;19.00;44.19;94866.28;10426947;28;2599;-58
2023/10/22 02:08:51;;;;;;;;;;;;;;;19.00;44.19;94868.91;10427559;28;4602;-58
2023/10/22 02:13:51;;;;;;;;;;;;;;;19.01;44.10;94870.47;10425897;28;2651;-58
2023/10/22 02:18:51;;;;;;;;;;;;;;;19.00;44.31;94873.41;10425871;28;2920;-58
2023/10/22 02:23:52;;;;;;;;;;;;;;;19.00;44.21;94876.03;10422145;28;2806;-58
2023/10/22 02:28:52;;;;;;;;;;;;;;;19.00;44.22;94876.78;10426875;28;2568;-57
2023/10/22 02:34:05;;;;;;;;;;;;;;;18.99;43.96;94883.13;10428616;28;2532;-58
2023/10/22 02:39:08;;;;;;;;;;;;;;;18.98;44.16;94884.16;10423729;28;2785;-58
2023/10/22 02:44:09;;;;;;;;;;;;;;;18.98;44.22;94886.78;10422063;28;2664;-58
2023/10/22 02:49:09;;;;;;;;;;;;;;;18.99;44.06;94887.56;10420316;28;2595;-58
2023/10/22 02:54:09;;;;;;;;;;;;;;;18.99;44.15;94892.81;10427637;28;2587;-58
2023/10/22 02:59:09;;;;;;;;;;;;;;;18.98;44.03;94891.28;10426013;28;2863;-58
2023/10/22 03:04:10;;;;;;;;;;;;;;;18.98;44.18;94896.53;10423872;28;2956;-58
2023/10/22 03:09:10;;;;;;;;;;;;;;;18.98;44.08;94897.28;10429006;28;4668;-59
2023/10/22 03:14:10;;;;;;;;;;;;;;;18.97;44.06;94898.38;10436587;28;2805;-59
2023/10/22 03:19:11;;;;;;;;;;;;;;;18.97;44.27;94901.00;10434667;28;2625;-59
2023/10/22 03:24:12;;;;;;;;;;;;;;;18.97;44.14;94901.00;10437759;28;2664;-58
2023/10/22 03:29:12;;;;;;;;;;;;;;;18.97;44.07;94895.75;10435267;28;2918;-59
2023/10/22 03:34:13;;;;;;;;;;;;;;;18.97;44.30;94906.25;10426833;28;7491;-58
2023/10/22 03:39:13;;;;;;;;;;;;;;;18.98;44.08;94899.16;10427454;28;5376;-59
2023/10/22 03:44:14;;;;;;;;;;;;;;;18.96;43.87;94894.16;10424273;28;5418;-59
2023/10/22 03:49:14;;;;;;;;;;;;;;;18.96;44.20;94899.44;10436230;28;5515;-59
2023/10/22 03:54:14;;;;;;;;;;;;;;;18.96;44.09;94906.53;10430340;28;2708;-58
2023/10/22 03:59:15;;;;;;;;;;;;;;;18.96;44.11;94906.53;10431508;28;2861;-57
2023/10/22 04:04:15;;;;;;;;;;;;;;;18.95;44.01;94904.97;10434405;28;2805;-59
2023/10/22 04:09:15;;;;;;;;;;;;;;;18.96;44.16;94901.28;10429679;28;8092;-59
2023/10/22 04:14:16;;;;;;;;;;;;;;;18.96;44.06;94909.94;10429135;28;2786;-59
2023/10/22 04:19:16;;;;;;;;;;;;;;;18.94;44.11;94912.06;10425845;28;2846;-59
2023/10/22 04:24:16;;;;;;;;;;;;;;;18.94;44.10;94925.19;10431390;28;2837;-59
2023/10/22 04:29:17;;;;;;;;;;;;;;;18.94;44.27;94925.19;10432798;28;2618;-59
2023/10/22 04:34:18;;;;;;;;;;;;;;;18.93;44.37;94939.41;10433309;28;2556;-59
2023/10/22 04:39:18;;;;;;;;;;;;;;;18.93;44.18;94936.78;10431475;28;2913;-59
2023/10/22 04:44:19;;;;;;;;;;;;;;;18.94;44.11;94937.56;10435504;28;4931;-59
2023/10/22 04:49:19;;;;;;;;;;;;;;;18.93;44.24;94933.34;10430276;28;2577;-59
2023/10/22 04:54:19;;;;;;;;;;;;;;;18.93;44.02;94938.59;10432370;28;2616;-59
2023/10/22 04:59:20;;;;;;;;;;;;;;;18.92;44.13;94937.81;10427241;28;2672;-59
2023/10/22 05:04:20;;;;;;;;;;;;;;;18.93;44.23;94951.75;10430652;28;2677;-59
2023/10/22 05:09:20;;;;;;;;;;;;;;;18.92;44.21;94964.09;10428787;28;2704;-59
2023/10/22 05:14:20;;;;;;;;;;;;;;;18.92;44.08;94966.72;10433202;28;2520;-59
2023/10/22 05:19:21;;;;;;;;;;;;;;;18.91;44.17;94967.78;10422391;28;2915;-59
2023/10/22 05:24:21;;;;;;;;;;;;;;;18.91;44.13;94980.91;10430927;28;2527;-59
2023/10/22 05:29:21;;;;;;;;;;;;;;;18.91;44.17;94980.91;10430755;28;2540;-57
2023/10/22 05:34:21;;;;;;;;;;;;;;;18.91;44.03;94994.03;10430666;28;2593;-59
2023/10/22 05:39:22;;;;;;;;;;;;;;;18.91;44.10;94988.78;10426169;28;2600;-59
2023/10/22 05:44:24;;;;;;;;;;;;;;;18.91;43.96;94996.66;10430774;28;5147;-58
2023/10/22 05:49:24;;;;;;;;;;;;;;;18.90;44.02;95000.34;10431140;28;2666;-59
2023/10/22 05:54:24;;;;;;;;;;;;;;;18.89;44.00;95008.50;10428191;28;2639;-59
2023/10/22 05:59:25;;;;;;;;;;;;;;;18.88;43.99;95012.97;10431991;28;2809;-62
2023/10/22 06:04:26;;;;;;;;;;;;;;;18.90;44.04;95023.22;10423277;28;2617;-58
2023/10/22 06:09:26;;;;;;;;;;;;;;;18.89;44.07;95037.41;10433658;28;2837;-59
2023/10/22 06:14:26;;;;;;;;;;;;;;;18.89;44.19;95035.56;10427888;28;2602;-59
2023/10/22 06:19:26;;;;;;;;;;;;;;;18.88;43.98;95052.38;10429356;28;2586;-58
2023/10/22 06:24:27;;;;;;;;;;;;;;;18.89;44.01;95058.41;10426816;28;2617;-59
2023/10/22 06:29:29;;;;;;;;;;;;;;;18.88;44.14;95068.13;10428006;28;3257;-56
2023/10/22 06:34:32;;;;;;;;;;;;;;;18.89;44.13;95069.69;10426537;28;2829;-59
2023/10/22 06:39:32;;;;;;;;;;;;;;;18.89;43.93;95084.66;10422129;28;2611;-59
2023/10/22 06:44:32;;;;;;;;;;;;;;;18.88;44.33;95091.75;10424798;28;4980;-59
2023/10/22 06:49:33;;;;;;;;;;;;;;;18.88;44.29;95097.00;10430069;28;2842;-57
2023/10/22 06:54:33;;;;;;;;;;;;;;;18.87;44.25;95107.78;10438034;28;2777;-59
2023/10/22 06:59:33;;;;;;;;;;;;;;;18.88;44.35;95117.22;10437854;28;2607;-59
2023/10/22 07:04:33;;;;;;;;;;;;;;;18.88;44.24;95122.47;10433632;28;2622;-58
2023/10/22 07:09:34;;;;;;;;;;;;;;;18.86;44.30;95130.63;10435669;28;2583;-58
2023/10/22 07:14:34;;;;;;;;;;;;;;;18.87;44.25;95136.69;10440851;28;2579;-59
2023/10/22 07:19:34;;;;;;;;;;;;;;;18.86;44.14;95140.34;10433444;28;2611;-57
2023/10/22 07:24:35;;;;;;;;;;;;;;;18.86;44.27;95135.88;10431221;28;2749;-59
2023/10/22 07:29:35;;;;;;;;;;;;;;;18.87;44.32;95141.94;10434175;28;2894;-58
2023/10/22 07:34:35;;;;;;;;;;;;;;;18.86;44.16;95145.59;10433260;28;2582;-59
2023/10/22 07:39:35;;;;;;;;;;;;;;;18.86;44.31;95151.66;10434663;28;2797;-59
2023/10/22 07:44:35;;;;;;;;;;;;;;;18.86;44.31;95154.28;10427783;28;4995;-59
2023/10/22 07:49:38;;;;;;;;;;;;;;;18.86;44.37;95161.34;10430613;28;2561;-59
2023/10/22 07:54:38;;;;;;;;;;;;;;;18.86;44.24;95169.25;10430646;28;2647;-59
2023/10/22 07:59:39;;;;;;;;;;;;;;;18.87;44.34;95183.94;10429072;28;2551;-58
2023/10/22 08:04:41;;;;;;;;;;;;;;;18.86;44.13;95183.16;10433344;28;2591;-59
2023/10/22 08:09:41;;;;;;;;;;;;;;;18.86;44.52;95193.66;10429540;28;2854;-59
2023/10/22 08:14:42;;;;;;;;;;;;;;;18.89;44.23;95201.00;10436782;28;2760;-59
2023/10/22 08:19:42;;;;;;;;;;;;;;;18.88;44.25;95196.78;10434240;28;2729;-59
2023/10/22 08:24:46;;;;;;;;;;;;;;;18.90;44.38;95207.03;10429458;28;2583;-59
2023/10/22 08:29:47;;;;;;;;;;;;;;;18.90;44.46;95210.44;10430658;28;2865;-59
2023/10/22 08:34:47;;;;;;;;;;;;;;;18.92;44.42;95220.69;10434884;28;2515;-59
2023/10/22 08:39:47;;;;;;;;;;;;;;;18.92;44.50;95207.56;10433376;28;2876;-59
2023/10/22 08:44:49;;;;;;;;;;;;;;;18.93;44.45;95223.03;10428932;28;5662;-58
2023/10/22 08:49:50;;;;;;;;;;;;;;;18.93;44.30;95223.03;10431438;28;2658;-59
2023/10/22 08:54:51;;;;;;;;;;;;;;;18.93;44.37;95225.66;10430295;28;2674;-59
2023/10/22 08:59:52;;;;;;;;;;;;;;;18.93;44.75;95225.66;10433566;28;2582;-59
2023/10/22 09:04:52;;;;;;;;;;;;;;;18.94;44.67;95224.59;10435148;28;2578;-58
2023/10/22 09:09:53;;;;;;;;;;;;;;;18.96;44.49;95226.94;10432406;28;2524;-59
2023/10/22 09:14:56;;;;;;;;;;;;;;;18.98;44.50;95228.22;10432559;28;2623;-58
2023/10/22 09:19:56;;;;;;;;;;;;;;;18.99;44.38;95226.38;10431921;28;2886;-59
2023/10/22 09:24:57;;;;;;;;;;;;;;;18.99;44.49;95221.94;10429685;28;2639;-58
2023/10/22 09:30:02;;;;;;;;;;;;;;;19.00;44.58;95227.97;10431435;28;2570;-59
2023/10/22 09:35:10;;;;;;;;;;;;;;;18.99;44.50;95224.56;10430733;28;2528;-59
2023/10/22 09:40:20;;;;;;;;;;;;;;;19.01;44.63;95221.66;10429257;28;5020;-57
2023/10/22 09:45:21;;;;;;;;;;;;;;;19.03;44.67;95225.56;10430033;28;2681;-59
2023/10/22 09:50:21;;;;;;;;;;;;;;;19.03;44.47;95224.78;10425987;28;2544;-59
2023/10/22 09:55:23;;;;;;;;;;;;;;;19.04;44.60;95221.88;10428374;28;2578;-59
2023/10/22 10:00:23;;;;;;;;;;;;;;;19.05;44.72;95222.66;10429309;28;2761;-59
2023/10/22 10:05:23;;;;;;;;;;;;;;;19.06;44.79;95230.25;10434864;28;2561;-59
2023/10/22 10:10:24;;;;;;;;;;;;;;;19.07;44.81;95231.03;10427213;28;2615;-59
2023/10/22 10:15:31;;;;;;;;;;;;;;;19.08;44.80;95228.13;10433099;28;2746;-59
2023/10/22 10:20:31;;;;;;;;;;;;;;;19.09;44.81;95218.41;10431401;28;2903;-59
2023/10/22 10:25:32;;;;;;;;;;;;;;;19.11;44.65;95224.19;10439621;28;2671;-58
2023/10/22 10:30:32;;;;;;;;;;;;;;;19.11;44.88;95222.34;10437236;28;2564;-59
2023/10/22 10:35:43;;;;;;;;;;;;;;;19.14;44.86;95215.75;10441138;28;2769;-59
2023/10/22 10:40:44;;;;;;;;;;;;;;;19.14;44.80;95213.91;10444265;28;4882;-59
2023/10/22 10:46:03;;;;;;;;;;;;;;;19.16;44.83;95214.44;10437844;28;2619;-58
2023/10/22 10:51:16;;;;;;;;;;;;;;;19.18;44.91;95217.56;10438640;28;2533;-59
2023/10/22 10:56:17;;;;;;;;;;;;;;;19.19;44.76;95218.31;10437567;28;2624;-59
2023/10/22 11:01:17;;;;;;;;;;;;;;;19.21;45.12;95217.00;10437848;28;2599;-59
2023/10/22 11:06:17;;;;;;;;;;;;;;;19.22;44.96;95223.81;10433930;28;2595;-59
2023/10/22 11:11:17;;;;;;;;;;;;;;;19.22;45.03;95220.41;10434728;28;2625;-57
2023/10/22 11:16:18;;;;;;;;;;;;;;;19.21;44.79;95206.47;10439708;28;2638;-59
2023/10/22 11:21:18;;;;;;;;;;;;;;;19.19;44.96;95218.31;10432865;28;3022;-59
2023/10/22 11:26:18;;;;;;;;;;;;;;;19.21;45.00;95217.00;10432847;28;2544;-58
2023/10/22 11:31:22;;;;;;;;;;;;;;;19.21;44.88;95209.09;10444597;28;2523;-57
2023/10/22 11:36:23;;;;;;;;;;;;;;;19.21;45.05;95209.09;10427585;28;2882;-57
2023/10/22 11:41:23;;;;;;;;;;;;;;;19.23;45.09;95201.72;10440941;28;5038;-58
2023/10/22 11:46:37;;;;;;;;;;;;;;;19.26;44.95;95213.53;10440920;28;2496;-58
2023/10/22 11:51:43;;;;;;;;;;;;;;;19.25;44.92;95207.50;10437870;28;2559;-58
2023/10/22 11:56:44;;;;;;;;;;;;;;;19.27;44.92;95210.63;10435684;28;2846;-58
2023/10/22 12:01:44;;;;;;;;;;;;;;;19.26;44.94;95210.91;10437970;28;2669;-56
2023/10/22 12:06:44;;;;;;;;;;;;;;;19.27;44.97;95215.09;10436922;28;2565;-58
2023/10/22 12:11:44;;;;;;;;;;;;;;;19.29;44.91;95223.47;10440826;28;2892;-58
2023/10/22 12:16:45;;;;;;;;;;;;;;;19.30;44.97;95215.34;10434889;28;2691;-58
2023/10/22 12:21:47;;;;;;;;;;;;;;;19.32;44.92;95223.72;10434950;28;2542;-58
2023/10/22 12:26:48;;;;;;;;;;;;;;;19.34;45.02;95212.97;10430470;28;2562;-58
2023/10/22 12:31:48;;;;;;;;;;;;;;;19.37;45.18;95217.69;10435754;28;2630;-58
2023/10/22 12:36:48;;;;;;;;;;;;;;;19.39;44.90;95215.56;10431964;28;2790;-58
2023/10/22 12:41:49;;;;;;;;;;;;;;;19.41;45.20;95224.69;10434946;28;5087;-58
2023/10/22 12:46:49;;;;;;;;;;;;;;;19.44;45.12;95218.13;10435419;28;2633;-58
2023/10/22 12:51:49;;;;;;;;;;;;;;;19.51;44.88;95223.03;10434527;28;2661;-58
2023/10/22 12:56:50;;;;;;;;;;;;;;;19.57;44.76;95216.66;10434809;28;2844;-58
2023/10/22 13:01:50;;;;;;;;;;;;;;;19.64;44.75;95222.38;10436901;28;2614;-59
2023/10/22 13:06:50;;;;;;;;;;;;;;;19.73;44.66;95228.56;10436854;28;2654;-58
2023/10/22 13:11:57;;;;;;;;;;;;;;;19.77;44.67;95229.59;10491169;27;2844;-57
2023/10/22 13:16:57;;;;;;;;;;;;;;;19.80;44.34;95224.56;10468710;28;2675;-57
2023/10/22 13:21:57;;;;;;;;;;;;;;;19.86;44.57;95222.66;10468271;28;2536;-58
2023/10/22 13:26:58;;;;;;;;;;;;;;;19.90;44.38;95232.34;10469697;28;2685;-58
2023/10/22 13:31:58;;;;;;;;;;;;;;;19.97;43.91;95224.09;10473860;28;3028;-58
2023/10/22 13:36:58;;;;;;;;;;;;;;;20.05;44.08;95242.66;10472477;28;2844;-58
2023/10/22 13:41:58;;;;;;;;;;;;;;;20.08;43.69;95242.09;10470642;28;5197;-58
2023/10/22 13:46:59;;;;;;;;;;;;;;;20.07;43.75;95251.03;10464161;28;2900;-58
2023/10/22 13:51:59;;;;;;;;;;;;;;;20.03;43.75;95254.53;10471917;28;2580;-57
2023/10/22 13:56:59;;;;;;;;;;;;;;;19.99;44.02;95253.53;10472595;28;2580;-57
2023/10/22 14:01:59;;;;;;;;;;;;;;;19.95;44.14;95255.16;10476540;28;2703;-58
2023/10/22 14:07:00;;;;;;;;;;;;;;;19.89;44.06;95261.53;10462943;28;2626;-57
2023/10/22 14:12:00;;;;;;;;;;;;;;;19.86;43.91;95255.00;10517817;28;2560;-58
2023/10/22 14:17:00;;;;;;;;;;;;;;;19.82;44.25;95250.56;10505372;28;2841;-57
2023/10/22 14:22:00;;;;;;;;;;;;;;;19.77;44.39;95251.41;10495572;28;2555;-58
2023/10/22 14:27:01;;;;;;;;;;;;;;;19.75;44.46;95253.53;10479759;28;2628;-58
2023/10/22 14:32:01;;;;;;;;;;;;;;;19.73;44.26;95245.16;10479964;28;2582;-58
2023/10/22 14:37:01;;;;;;;;;;;;;;;19.71;44.35;95251.75;10484503;28;2596;-58
2023/10/22 14:42:02;;;;;;;;;;;;;;;19.71;44.43;95251.75;10487801;28;5053;-58
2023/10/22 14:47:03;;;;;;;;;;;;;;;19.67;44.58;95243.63;10484690;28;2559;-56
2023/10/22 14:52:03;;;;;;;;;;;;;;;19.66;44.57;95255.19;10482310;28;2752;-58
2023/10/22 14:57:03;;;;;;;;;;;;;;;19.64;44.55;95251.31;10483016;28;2603;-58
2023/10/22 15:02:03;;;;;;;;;;;;;;;19.63;44.53;95254.97;10478868;28;2555;-59
2023/10/22 15:07:04;;;;;;;;;;;;;;;19.62;44.71;95256.06;10475682;28;2791;-59
2023/10/22 15:12:04;;;;;;;;;;;;;;;19.60;44.71;95256.31;10484871;28;2771;-58
2023/10/22 15:17:04;;;;;;;;;;;;;;;19.59;44.71;95269.75;10466562;28;2620;-58
2023/10/22 15:22:05;;;;;;;;;;;;;;;19.58;44.68;95268.19;10480139;28;2617;-59
2023/10/22 15:27:05;;;;;;;;;;;;;;;19.55;44.68;95264.28;10473055;28;2778;-58
2023/10/22 15:32:05;;;;;;;;;;;;;;;19.54;44.78;95267.94;10475555;28;2599;-59
2023/10/22 15:37:05;;;;;;;;;;;;;;;19.52;44.94;95279.78;10482546;28;2900;-58
2023/10/22 15:42:06;;;;;;;;;;;;;;;19.52;44.68;95287.69;10478513;28;5023;-59
2023/10/22 15:47:06;;;;;;;;;;;;;;;19.49;44.77;95281.91;10481537;28;2834;-58
2023/10/22 15:52:06;;;;;;;;;;;;;;;19.48;44.71;95292.72;10476351;28;2635;-59
2023/10/22 15:57:06;;;;;;;;;;;;;;;19.47;44.72;95294.56;10475259;28;2738;-59
2023/10/22 16:02:07;;;;;;;;;;;;;;;19.47;44.78;95310.31;10474195;28;2615;-59
2023/10/22 16:07:07;;;;;;;;;;;;;;;19.44;44.89;95305.63;10479283;28;2465;-59
2023/10/22 16:12:07;;;;;;;;;;;;;;;19.45;44.96;95311.69;10469168;28;2571;-58
2023/10/22 16:17:08;;;;;;;;;;;;;;;19.44;44.84;95310.91;10460888;28;2663;-58
2023/10/22 16:22:09;;;;;;;;;;;;;;;19.47;45.02;95320.09;10493400;28;2771;-59
2023/10/22 16:27:11;;;;;;;;;;;;;;;19.49;44.84;95323.97;10470800;28;2774;-62
2023/10/22 16:32:12;;;;;;;;;;;;;;;19.55;44.84;95322.09;10471553;28;2657;-59
2023/10/22 16:37:12;;;;;;;;;;;;;;;19.65;44.89;95326.47;10475866;28;2602;-58
2023/10/22 16:42:13;;;;;;;;;;;;;;;19.71;44.97;95330.63;10475240;28;5029;-58
2023/10/22 16:47:13;;;;;;;;;;;;;;;19.77;44.67;95334.78;10476806;28;2551;-59
2023/10/22 16:52:13;;;;;;;;;;;;;;;19.93;44.58;95341.44;10476840;28;2590;-58
2023/10/22 16:57:13;;;;;;;;;;;;;;;20.02;44.52;95345.84;10475114;28;2572;-59
2023/10/22 17:02:14;;;;;;;;;;;;;;;20.14;44.73;95350.69;10466763;28;2758;-58
2023/10/22 17:07:14;;;;;;;;;;;;;;;20.16;44.49;95354.63;10474323;28;2841;-57
2023/10/22 17:12:14;;;;;;;;;;;;;;;20.24;44.61;95358.50;10474146;28;2884;-58
2023/10/22 17:17:15;;;;;;;;;;;;;;;20.29;44.94;95363.72;10474994;28;2532;-58
2023/10/22 17:22:15;;;;;;;;;;;;;;;20.36;44.84;95368.66;10474791;28;2915;-60
2023/10/22 17:27:15;;;;;;;;;;;;;;;20.40;44.57;95373.09;10473839;28;2729;-58
2023/10/22 17:32:15;;;;;;;;;;;;;;;20.48;44.09;95376.94;10454706;28;2583;-58
2023/10/22 17:37:16;;;;;;;;;;;;;;;20.52;44.36;95373.47;10473907;28;2542;-60
2023/10/22 17:42:16;;;;;;;;;;;;;;;20.55;44.17;95378.16;10458165;28;5048;-60
2023/10/22 17:47:18;;;;;;;;;;;;;;;20.58;43.86;95388.16;10474424;28;2737;-60
2023/10/22 17:52:19;;;;;;;;;;;;;;;20.61;44.01;95379.66;10471770;28;2825;-59
2023/10/22 17:57:19;;;;;;;;;;;;;;;20.64;43.83;95379.13;10478838;28;2644;-60
2023/10/22 18:02:19;;;;;;;;;;;;;;;20.66;43.81;95370.91;10464818;28;2599;-60
2023/10/22 18:07:19;;;;;;;;;;;;;;;20.68;43.61;95372.22;10486540;28;2531;-59
2023/10/22 18:12:20;;;;;;;;;;;;;;;20.71;43.70;95378.78;10494838;28;2609;-59
2023/10/22 18:17:20;;;;;;;;;;;;;;;20.79;44.05;95386.81;10478712;28;2642;-60
2023/10/22 18:22:20;;;;;;;;;;;;;;;20.81;43.92;95379.41;10473140;28;2633;-59
2023/10/22 18:27:20;;;;;;;;;;;;;;;20.87;44.26;95386.19;10476856;28;2558;-60
2023/10/22 18:32:21;;;;;;;;;;;;;;;20.89;44.65;95389.34;10475106;28;2630;-60
2023/10/22 18:37:21;;;;;;;;;;;;;;;20.96;44.12;95394.22;10460072;28;2556;-59
2023/10/22 18:42:21;;;;;;;;;;;;;;;20.95;44.20;95400.56;10469264;28;4911;-59
2023/10/22 18:47:22;;;;;;;;;;;;;;;20.96;44.20;95404.75;10479414;28;2005;-59
2023/10/22 18:52:22;;;;;;;;;;;;;;;20.97;44.07;95401.06;10488187;28;1483;-59
2023/10/22 18:57:22;;;;;;;;;;;;;;;20.98;44.07;95405.25;10467514;28;2003;-59
2023/10/22 19:02:22;;;;;;;;;;;;;;;21.00;44.19;95417.09;10477291;28;1593;-59
2023/10/22 19:07:23;;;;;;;;;;;;;;;21.02;43.88;95415.00;10484502;28;1906;-59
2023/10/22 19:12:23;;;;;;;;;;;;;;;21.04;43.90;95417.38;10460322;28;1684;-59
2023/10/22 19:17:23;;;;;;;;;;;;;;;21.05;44.03;95424.19;10479989;28;1449;-59
2023/10/22 19:22:24;;;;;;;;;;;;;;;21.06;43.87;95428.41;10482111;28;1499;-58
2023/10/22 19:27:24;;;;;;;;;;;;;;;21.08;43.95;95434.94;10479860;28;2517;-59
2023/10/22 19:32:24;;;;;;;;;;;;;;;21.11;43.85;95444.13;10481356;28;1477;-59
2023/10/22 19:37:25;;;;;;;;;;;;;;;21.12;43.93;95442.28;10468869;28;1503;-61
2023/10/22 19:42:25;;;;;;;;;;;;;;;21.13;43.96;95443.84;10484041;28;5054;-59
2023/10/22 19:47:26;;;;;;;;;;;;;;;21.13;43.76;95446.47;10470149;28;1955;-59
2023/10/22 19:52:27;;;;;;;;;;;;;;;21.12;43.77;95450.19;10478281;28;1635;-59
2023/10/22 19:57:27;;;;;;;;;;;;;;;21.10;43.86;95447.06;10482674;28;1788;-59
2023/10/22 20:02:27;;;;;;;;;;;;;;;21.15;43.69;95442.50;10481286;28;1570;-59
2023/10/22 20:07:32;;;;;;;;;;;;;;;21.24;43.40;95456.63;10459966;28;1983;-59
2023/10/22 20:12:32;;;;;;;;;;;;;;;21.22;43.44;95450.06;10476594;28;2640;-60
2023/10/22 20:17:33;;;;;;;;;;;;;;;21.22;43.40;95452.69;10490518;28;1600;-59
2023/10/22 20:22:33;;;;;;;;;;;;;;;21.21;43.35;95451.91;10465854;28;1594;-59
2023/10/22 20:27:33;;;;;;;;;;;;;;;21.16;43.65;95451.19;10475748;28;2540;-59
2023/10/22 20:32:33;;;;;;;;;;;;;;;21.14;43.89;95458.59;10475158;28;2566;-58
2023/10/22 20:37:34;;;;;;;;;;;;;;;21.08;43.83;95459.72;10474935;28;2842;-59
2023/10/22 20:42:34;;;;;;;;;;;;;;;21.01;44.14;95455.56;10473586;28;5081;-59
2023/10/22 20:47:35;;;;;;;;;;;;;;;20.99;43.88;95447.16;10452197;28;2586;-59
2023/10/22 20:52:37;;;;;;;;;;;;;;;20.94;43.79;95455.13;10472804;28;2597;-59
2023/10/22 20:57:37;;;;;;;;;;;;;;;20.88;43.81;95450.19;10455000;28;2561;-59
2023/10/22 21:02:38;;;;;;;;;;;;;;;20.81;43.94;95455.78;10469632;28;2657;-57
2023/10/22 21:07:38;;;;;;;;;;;;;;;20.78;44.12;95440.56;10463745;28;2605;-59
2023/10/22 21:12:38;;;;;;;;;;;;;;;20.72;44.35;95443.53;10472754;28;2592;-59
2023/10/22 21:17:38;;;;;;;;;;;;;;;20.69;44.31;95449.38;10471957;28;2566;-59
2023/10/22 21:22:39;;;;;;;;;;;;;;;20.64;44.19;95452.06;10472616;28;2617;-59
2023/10/22 21:27:39;;;;;;;;;;;;;;;20.63;43.96;95448.63;10475106;28;2590;-59
2023/10/22 21:32:39;;;;;;;;;;;;;;;20.58;44.03;95451.34;10477528;28;2833;-60
2023/10/22 21:37:39;;;;;;;;;;;;;;;20.55;44.19;95457.16;10494964;28;2694;-59
2023/10/22 21:42:40;;;;;;;;;;;;;;;20.56;43.90;95460.59;10464480;28;5233;-59
2023/10/22 21:47:43;;;;;;;;;;;;;;;20.52;44.12;95457.72;10480056;28;2725;-59
2023/10/22 21:52:44;;;;;;;;;;;;;;;20.51;44.14;95460.63;10483480;28;3034;-60
2023/10/22 21:57:50;;;;;;;;;;;;;;;20.48;44.23;95455.94;10482966;28;2575;-59
2023/10/22 22:02:50;;;;;;;;;;;;;;;20.47;44.00;95451.72;10478123;28;2662;-59
2023/10/22 22:07:50;;;;;;;;;;;;;;;20.42;44.28;95455.22;10474111;28;2605;-59
2023/10/22 22:12:51;;;;;;;;;;;;;;;20.41;44.03;95448.34;10484737;28;2823;-59
2023/10/22 22:17:51;;;;;;;;;;;;;;;20.39;44.00;95442.59;10481557;28;2623;-59
2023/10/22 22:22:51;;;;;;;;;;;;;;;20.39;44.06;95436.53;10487312;28;2701;-59
2023/10/22 22:27:51;;;;;;;;;;;;;;;20.36;43.86;95419.44;10456619;28;2596;-59
2023/10/22 22:32:52;;;;;;;;;;;;;;;20.35;44.16;95420.53;10481352;28;2813;-59
2023/10/22 22:37:52;;;;;;;;;;;;;;;20.35;44.10;95415.25;10476172;28;2791;-57
2023/10/22 22:42:52;;;;;;;;;;;;;;;20.34;44.02;95423.44;10457436;28;5358;-59
2023/10/22 22:47:52;;;;;;;;;;;;;;;20.30;44.03;95423.19;10458490;28;2548;-59
2023/10/22 22:52:53;;;;;;;;;;;;;;;20.31;44.11;95419.50;10485805;28;2698;-59
2023/10/22 22:57:53;;;;;;;;;;;;;;;20.28;44.01;95428.75;10485696;28;2637;-59
2023/10/22 23:02:53;;;;;;;;;;;;;;;20.27;43.98;95414.03;10476450;28;2579;-59
2023/10/22 23:07:53;;;;;;;;;;;;;;;20.26;44.06;95417.72;10472245;28;2628;-59
2023/10/22 23:12:54;;;;;;;;;;;;;;;20.25;44.04;95410.09;10470269;28;2604;-59
2023/10/22 23:17:54;;;;;;;;;;;;;;;20.23;44.12;95404.34;10480038;28;2536;-58
2023/10/22 23:22:54;;;;;;;;;;;;;;;20.21;44.08;95417.78;10476228;28;2743;-59
2023/10/22 23:27:55;;;;;;;;;;;;;;;20.21;44.06;95409.09;10475557;28;2583;-59
2023/10/22 23:32:55;;;;;;;;;;;;;;;20.19;43.90;95395.41;10478302;28;2709;-59
2023/10/22 23:37:55;;;;;;;;;;;;;;;20.19;43.89;95401.47;10475102;28;2629;-59
2023/10/22 23:42:56;;;;;;;;;;;;;;;20.18;43.98;95391.19;10477218;28;5029;-59
2023/10/22 23:47:56;;;;;;;;;;;;;;;20.16;44.00;95394.09;10456640;28;2704;-59
2023/10/22 23:52:56;;;;;;;;;;;;;;;20.14;44.16;95408.59;10476095;28;2584;-58
2023/10/22 23:57:56;;;;;;;;;;;;;;;20.12;44.23;95416.78;10478345;28;2798;-59
